Map

Track Data

SID SEASON NUMBER BASIN SUBBASIN NAME ISO_TIME NATURE LAT LON WMO_WIND WMO_PRES WMO_AGENCY TRACK_TYPE DIST2LAND LANDFALL IFLAG USA_AGENCY USA_ATCF_ID USA_LAT USA_LON USA_RECORD USA_STATUS USA_WIND USA_PRES USA_SSHS USA_R34_NE USA_R34_SE USA_R34_SW USA_R34_NW USA_R50_NE USA_R50_SE USA_R50_SW USA_R50_NW USA_R64_NE USA_R64_SE USA_R64_SW USA_R64_NW USA_POCI USA_ROCI USA_RMW USA_EYE TOKYO_LAT TOKYO_LON TOKYO_GRADE TOKYO_WIND TOKYO_PRES TOKYO_R50_DIR TOKYO_R50_LONG TOKYO_R50_SHORT TOKYO_R30_DIR TOKYO_R30_LONG TOKYO_R30_SHORT TOKYO_LAND CMA_LAT CMA_LON CMA_CAT CMA_WIND CMA_PRES HKO_LAT HKO_LON HKO_CAT HKO_WIND HKO_PRES NEWDELHI_LAT NEWDELHI_LON NEWDELHI_GRADE NEWDELHI_WIND NEWDELHI_PRES NEWDELHI_CI NEWDELHI_DP NEWDELHI_POCI REUNION_LAT REUNION_LON REUNION_TYPE REUNION_WIND REUNION_PRES REUNION_TNUM REUNION_CI REUNION_RMW REUNION_R34_NE REUNION_R34_SE REUNION_R34_SW REUNION_R34_NW REUNION_R50_NE REUNION_R50_SE REUNION_R50_SW REUNION_R50_NW REUNION_R64_NE REUNION_R64_SE REUNION_R64_SW REUNION_R64_NW BOM_LAT BOM_LON BOM_TYPE BOM_WIND BOM_PRES BOM_TNUM BOM_CI BOM_RMW BOM_R34_NE BOM_R34_SE BOM_R34_SW BOM_R34_NW BOM_R50_NE BOM_R50_SE BOM_R50_SW BOM_R50_NW BOM_R64_NE BOM_R64_SE BOM_R64_SW BOM_R64_NW BOM_ROCI BOM_POCI BOM_EYE BOM_POS_METHOD BOM_PRES_METHOD NADI_LAT NADI_LON NADI_CAT NADI_WIND NADI_PRES WELLINGTON_LAT WELLINGTON_LON WELLINGTON_WIND WELLINGTON_PRES DS824_LAT DS824_LON DS824_STAGE DS824_WIND DS824_PRES TD9636_LAT TD9636_LON TD9636_STAGE TD9636_WIND TD9636_PRES TD9635_LAT TD9635_LON TD9635_WIND TD9635_PRES TD9635_ROCI NEUMANN_LAT NEUMANN_LON NEUMANN_CLASS NEUMANN_WIND NEUMANN_PRES MLC_LAT MLC_LON MLC_CLASS MLC_WIND MLC_PRES USA_GUST BOM_GUST BOM_GUST_PER REUNION_GUST REUNION_GUST_PER USA_SEAHGT USA_SEARAD_NE USA_SEARAD_SE USA_SEARAD_SW USA_SEARAD_NW STORM_SPEED STORM_DIR
1939212N22123 1939 42 WP MM NOT_NAMED 1939-07-30 21:00:00 NR 21.9000 122.500 main 165 165 __________O___ -1 21.9000 122.500 2 5 67
1939212N22123 1939 42 WP MM NOT_NAMED 1939-07-31 00:00:00 NR 21.9921 122.733 main 181 181 __________P___ -1 21.9921 122.733 2 5 64
1939212N22123 1939 42 WP MM NOT_NAMED 1939-07-31 03:00:00 NR 22.1172 122.982 main 198 192 __________P___ -1 22.1172 122.982 2 6 57
1939212N22123 1939 42 WP MM NOT_NAMED 1939-07-31 06:00:00 NR 22.3088 123.265 main 214 209 __________P___ -1 22.3088 123.265 2 8 50
1939212N22123 1939 42 WP MM NOT_NAMED 1939-07-31 09:00:00 NR 22.6000 123.600 main 232 232 __________O___ -1 22.6000 123.600 2 10 44
1939212N22123 1939 42 WP MM NOT_NAMED 1939-07-31 12:00:00 NR 23.0064 123.996 main 266 263 __________P___ -1 23.0064 123.996 2 12 41
1939212N22123 1939 42 WP MM NOT_NAMED 1939-07-31 15:00:00 NR 23.4732 124.432 main 277 277 __________P___ -1 23.4732 124.432 2 12 41
1939212N22123 1939 42 WP MM NOT_NAMED 1939-07-31 18:00:00 NR 23.9283 124.877 main 311 309 __________P___ -1 23.9283 124.877 2 11 44
1939212N22123 1939 42 WP MM NOT_NAMED 1939-07-31 21:00:00 NR 24.3000 125.300 main 342 342 __________O___ -1 24.3000 125.300 2 8 51
1939212N22123 1939 42 WP MM NOT_NAMED 1939-08-01 00:00:00 NR 24.4590 125.592 main 367 367 __________P___ -1 24.4590 125.592 2 6 65
1939212N22123 1939 42 WP MM NOT_NAMED 1939-08-01 03:00:00 NR 24.5346 125.865 main 397 397 __________P___ -1 24.5346 125.865 2 6 76
1939212N22123 1939 42 WP MM NOT_NAMED 1939-08-01 06:00:00 NR 24.5930 126.180 main 426 426 __________P___ -1 24.5930 126.180 2 7 76
1939212N22123 1939 42 WP MM NOT_NAMED 1939-08-01 09:00:00 NR 24.7000 126.600 main 465 451 __________O___ -1 24.7000 126.600 2 6 146
1939212N22123 1939 42 WP MM NOT_NAMED 1939-08-01 10:00:00 NR 24.2623 126.423 main 451 451 __________P___ -1 24.7778 126.804 2 13 67
1939212N22123 1939 42 WP MM NOT_NAMED 1939-08-01 12:00:00 NR 24.9575 127.264 main 533 533 __________P___ -1 24.9575 127.264 2 21 55
1939212N22123 1939 42 WP MM NOT_NAMED 1939-08-01 15:00:00 NR 25.2666 128.031 main 604 604 __________P___ -1 25.2666 128.031 2 15 66
1939212N22123 1939 42 WP MM NOT_NAMED 1939-08-01 18:00:00 NR 25.5919 128.808 main 630 581 __________P___ -1 25.5919 128.808 2 15 64
1939212N22123 1939 42 WP MM NOT_NAMED 1939-08-01 21:00:00 NR 25.9000 129.500 main 581 568 __________O___ -1 25.9000 129.500 2 13 63
1939212N22123 1939 42 WP MM NOT_NAMED 1939-08-01 22:00:00 NR 25.9812 129.653 main 566 552 __________P___ -1 25.9812 129.653 2 9 58
1939212N22123 1939 42 WP MM NOT_NAMED 1939-08-02 00:00:00 NR 26.1348 129.914 main 552 526 __________P___ -1 26.1348 129.914 2 8 55
1939212N22123 1939 42 WP MM NOT_NAMED 1939-08-02 03:00:00 NR 26.3524 130.239 main 515 491 __________P___ -1 26.3524 130.239 2 7 54
1939212N22123 1939 42 WP MM NOT_NAMED 1939-08-02 06:00:00 NR 26.5690 130.570 main 491 469 __________P___ -1 26.5690 130.570 2 8 57
1939212N22123 1939 42 WP MM NOT_NAMED 1939-08-02 09:00:00 NR 26.8000 131.000 main 469 459 __________O___ -1 26.8000 131.000 2 10 61
1939212N22123 1939 42 WP MM NOT_NAMED 1939-08-02 10:00:00 NR 26.8984 131.224 main 460 444 __________P___ -1 26.8984 131.224 2 14 65
1939212N22123 1939 42 WP MM NOT_NAMED 1939-08-02 12:00:00 NR 27.1047 131.726 main 446 434 __________P___ -1 27.1047 131.726 2 15 66
1939212N22123 1939 42 WP MM NOT_NAMED 1939-08-02 15:00:00 NR 27.4150 132.553 main 442 436 __________P___ -1 27.4150 132.553 2 16 68
1939212N22123 1939 42 WP MM NOT_NAMED 1939-08-02 18:00:00 NR 27.6923 133.379 main 451 451 __________P___ -1 27.6923 133.379 2 15 71
1939212N22123 1939 42 WP MM NOT_NAMED 1939-08-02 21:00:00 NR 27.9000 134.100 main 469 469 __________O___ -1 27.9000 134.100 2 13 73
1939212N22123 1939 42 WP MM NOT_NAMED 1939-08-02 22:00:00 NR 27.9398 134.304 main 480 477 __________P___ -1 27.9398 134.304 2 10 80
1939212N22123 1939 42 WP MM NOT_NAMED 1939-08-03 00:00:00 NR 27.9909 134.672 main 495 495 __________P___ -1 27.9909 134.672 2 9 84
1939212N22123 1939 42 WP MM NOT_NAMED 1939-08-03 03:00:00 NR 28.0152 135.110 main 520 520 __________P___ -1 28.0152 135.110 2 6 89
1939212N22123 1939 42 WP MM NOT_NAMED 1939-08-03 06:00:00 NR 28.0070 135.393 main 541 541 __________P___ -1 28.0070 135.393 2 3 93
1939212N22123 1939 42 WP MM NOT_NAMED 1939-08-03 09:00:00 NR 28.0000 135.500 main 547 547 __________O___ -1 28.0000 135.500 2 1 88
1939212N22123 1939 42 WP MM NOT_NAMED 1939-08-03 10:00:00 NR 28.0108 135.492 main 547 503 __________P___ -1 28.0108 135.492 2 15 265
1939212N22123 1939 42 WP MM NOT_NAMED 1939-08-03 12:00:00 NR 27.9377 134.663 main 503 465 __________P___ -1 28.0347 135.406 2 14 268
1939212N22123 1939 42 WP MM NOT_NAMED 1939-08-03 15:00:00 NR 27.9685 134.133 main 460 444 __________P___ -1 28.0779 135.150 2 8 278
1939212N22123 1939 42 WP MM NOT_NAMED 1939-08-03 18:00:00 NR 28.0410 133.812 main 444 429 __________P___ -1 28.1320 134.819 2 5 291
1939212N22123 1939 42 WP MM NOT_NAMED 1939-08-03 21:00:00 NR 28.1300 133.650 main 429 420 __________O___ -1 28.2000 134.500 2 3 315
1939212N22123 1939 42 WP MM NOT_NAMED 1939-08-03 22:00:00 NR 28.1694 133.667 main 420 420 __________P___ -1 28.2389 134.434 2 3 15
1939212N22123 1939 42 WP MM NOT_NAMED 1939-08-04 00:00:00 NR 28.2506 133.700 main 410 401 __________P___ -1 28.3261 134.313 2 2 21
1939212N22123 1939 42 WP MM NOT_NAMED 1939-08-04 03:00:00 NR 28.3613 133.743 main 401 401 __________P___ -1 28.4598 134.155 2 2 18
1939212N22123 1939 42 WP MM NOT_NAMED 1939-08-04 06:00:00 NR 28.4464 133.780 main 406 397 __________P___ -1 28.5636 134.020 2 1 28
1939212N22123 1939 42 WP MM NOT_NAMED 1939-08-04 09:00:00 NR 28.4916 133.818 main 397 397 __________O___ -1 28.6000 133.900 2 1 46
1939212N22123 1939 42 WP MM NOT_NAMED 1939-08-04 10:00:00 NR 28.4850 133.823 main 397 397 __________P___ -1 28.5700 133.846 2 1 156
1939212N22123 1939 42 WP MM NOT_NAMED 1939-08-04 12:00:00 NR 28.4554 133.835 main 397 397 __________P___ -1 28.4771 133.740 2 1 158
1939212N22123 1939 42 WP MM NOT_NAMED 1939-08-04 15:00:00 NR 28.3881 133.865 main 412 412 __________P___ -1 28.2924 133.602 2 2 177
1939212N22123 1939 42 WP MM NOT_NAMED 1939-08-04 18:00:00 NR 28.2924 133.862 main 421 421 __________P___ -1 28.1114 133.513 2 2 183
1939212N22123 1939 42 WP MM NOT_NAMED 1939-08-04 21:00:00 NR 28.1945 133.844 main 425 425 __________O___ -1 28.0000 133.500 2 3 212
1939212N22123 1939 42 WP MM NOT_NAMED 1939-08-04 22:00:00 NR 28.1288 133.743 main 429 424 __________P___ -1 28.0110 133.529 2 5 237
1939212N22123 1939 42 WP MM NOT_NAMED 1939-08-05 00:00:00 NR 28.0665 133.620 main 424 420 __________P___ -1 28.0665 133.620 2 1 38
1939212N22123 1939 42 WP MM NOT_NAMED 1939-08-05 03:00:00 NR 28.2055 133.812 main 425 417 __________P___ -1 28.2055 133.812 2 5 50
1939212N22123 1939 42 WP MM NOT_NAMED 1939-08-05 06:00:00 NR 28.3666 134.023 main 417 414 __________P___ -1 28.3666 134.023 2 5 49
1939212N22123 1939 42 WP MM NOT_NAMED 1939-08-05 09:00:00 NR 28.5000 134.200 main 421 421 __________O___ -1 28.5000 134.200 2 2 56
1939212N22123 1939 42 WP MM NOT_NAMED 1939-08-05 12:00:00 NR 28.5033 134.252 main 427 427 __________P___ -1 28.5033 134.252 2 1 114
1939212N22123 1939 42 WP MM NOT_NAMED 1939-08-05 15:00:00 NR 28.4773 134.266 main 427 427 __________P___ -1 28.4773 134.266 2 0 0
1939212N22123 1939 42 WP MM NOT_NAMED 1939-08-05 18:00:00 NR 28.4627 134.271 main 427 427 __________P___ -1 28.4627 134.271 2 0 55
1939212N22123 1939 42 WP MM NOT_NAMED 1939-08-05 21:00:00 NR 28.5000 134.300 main 427 418 __________O___ -1 28.5000 134.300 2 2 30
1939212N22123 1939 42 WP MM NOT_NAMED 1939-08-06 00:00:00 NR 28.6192 134.376 main 425 415 __________P___ -1 28.6192 134.376 2 4 30
1939212N22123 1939 42 WP MM NOT_NAMED 1939-08-06 03:00:00 NR 28.8078 134.494 main 415 407 __________P___ -1 28.8078 134.494 2 5 28
1939212N22123 1939 42 WP MM NOT_NAMED 1939-08-06 06:00:00 NR 29.0424 134.640 main 407 400 __________P___ -1 29.0424 134.640 2 6 29
1939212N22123 1939 42 WP MM NOT_NAMED 1939-08-06 09:00:00 NR 29.3000 134.800 main 401 __________O___ -1 29.3000 134.800 2 6 28

Digital Typhoon Data and Search

About IBTrACS Database

This database is a web-friendly format of International Best Track Archive for Climate Stewardship (IBTrACS), a global best track data archive curated by NOAA dating back to 1842.

Updated: 2021-10-27